Time,TemperatureF,DewpointF,PressureIn,WindDirection,WindDirectionDegrees,WindSpeedMPH,WindSpeedGustMPH,Humidity,HourlyPrecipIn,Conditions,Clouds,dailyrainin,SoftwareType,DateUTC
2013-01-04 09:22:00,31.5,26.4,30.28,ESE,112,1.7,-999.0,81,-99.99,,,0.00,Acu-Link.com,2013-01-04 14:22:00,
2013-01-04 09:37:00,36.5,27.7,30.29,NE,45,2.7,-999.0,70,-99.99,,,0.00,Acu-Link.com,2013-01-04 14:37:00,
2013-01-04 09:55:00,37.9,29.0,30.29,ENE,67,3.2,-999.0,70,-99.99,,,0.00,Acu-Link.com,2013-01-04 14:55:00,
2013-01-04 10:10:00,38.3,28.0,30.30,North,0,2.7,-999.0,66,-99.99,,,0.00,Acu-Link.com,2013-01-04 15:10:00,
2013-01-04 10:25:00,39.0,28.2,30.30,East,90,2.7,-999.0,65,-99.99,,,0.00,Acu-Link.com,2013-01-04 15:25:00,
2013-01-04 10:41:00,39.4,27.1,30.30,East,90,2.7,-999.0,61,-99.99,,,0.00,Acu-Link.com,2013-01-04 15:41:00,
2013-01-04 11:00:00,40.1,26.9,30.29,WNW,292,2.7,-999.0,59,-99.99,,,0.00,Acu-Link.com,2013-01-04 16:00:00,
2013-01-04 11:17:00,41.2,25.4,30.30,North,0,1.7,-999.0,53,-99.99,,,0.00,Acu-Link.com,2013-01-04 16:17:00,
2013-01-04 11:34:00,41.0,25.6,30.29,ESE,112,1.7,-999.0,54,-99.99,,,0.00,Acu-Link.com,2013-01-04 16:34:00,
2013-01-04 11:49:00,42.6,24.8,30.29,NNW,337,3.2,-999.0,49,-99.99,,,0.00,Acu-Link.com,2013-01-04 16:49:00,
2013-01-04 12:04:00,43.0,26.1,30.28,ESE,112,1.7,-999.0,51,-99.99,,,0.00,Acu-Link.com,2013-01-04 17:04:00,
2013-01-04 12:21:00,42.8,25.9,30.27,ESE,112,3.7,-999.0,51,-99.99,,,0.00,Acu-Link.com,2013-01-04 17:21:00,
2013-01-04 12:36:00,44.2,27.2,30.26,ESE,112,2.7,-999.0,51,-99.99,,,0.00,Acu-Link.com,2013-01-04 17:36:00,
2013-01-04 12:53:00,44.4,26.9,30.25,East,90,0.0,-999.0,50,-99.99,,,0.00,Acu-Link.com,2013-01-04 17:53:00,
2013-01-04 13:14:00,44.2,26.3,30.23,East,90,3.2,-999.0,49,-99.99,,,0.00,Acu-Link.com,2013-01-04 18:14:00,
2013-01-04 13:31:00,46.2,28.1,30.22,NNE,22,1.7,-999.0,49,-99.99,,,0.00,Acu-Link.com,2013-01-04 18:31:00,
2013-01-04 13:47:00,46.0,27.4,30.21,East,90,3.7,-999.0,48,-99.99,,,0.00,Acu-Link.com,2013-01-04 18:47:00,
2013-01-04 14:02:00,46.0,26.9,30.21,ESE,112,2.2,-999.0,47,-99.99,,,0.00,Acu-Link.com,2013-01-04 19:02:00,
2013-01-04 14:17:00,46.8,27.6,30.21,East,90,3.2,-999.0,47,-99.99,,,0.00,Acu-Link.com,2013-01-04 19:17:00,
2013-01-04 14:32:00,46.8,26.6,30.20,East,90,2.7,-999.0,45,-99.99,,,0.00,Acu-Link.com,2013-01-04 19:32:00,
2013-01-04 14:48:00,48.9,27.4,30.20,East,90,2.7,-999.0,43,-99.99,,,0.00,Acu-Link.com,2013-01-04 19:48:00,
2013-01-04 15:04:00,48.4,26.9,30.19,North,0,4.7,-999.0,43,-99.99,,,0.00,Acu-Link.com,2013-01-04 20:04:00,
2013-01-04 15:25:00,48.4,23.3,30.20,NNW,337,2.2,-999.0,37,-99.99,,,0.00,Acu-Link.com,2013-01-04 20:25:00,
2013-01-04 15:44:00,48.7,24.2,30.20,NNW,337,2.7,-999.0,38,-99.99,,,0.00,Acu-Link.com,2013-01-04 20:44:00,
2013-01-04 16:00:00,48.4,24.6,30.20,WSW,247,1.7,-999.0,39,-99.99,,,0.00,Acu-Link.com,2013-01-04 21:00:00,
2013-01-04 16:17:00,48.6,23.5,30.20,NNE,22,2.7,-999.0,37,-99.99,,,0.00,Acu-Link.com,2013-01-04 21:17:00,
2013-01-04 16:32:00,47.5,23.8,30.20,NNE,22,5.3,-999.0,39,-99.99,,,0.00,Acu-Link.com,2013-01-04 21:32:00,
2013-01-04 16:48:00,47.3,23.6,30.20,WNW,292,3.2,-999.0,39,-99.99,,,0.00,Acu-Link.com,2013-01-04 21:48:00,
2013-01-04 19:10:00,36.5,23.1,30.24,WNW,292,0.0,-999.0,58,-99.99,,,0.00,Acu-Link.com,2013-01-05 00:10:00,
2013-01-04 19:29:00,35.8,23.7,30.25,NNW,337,1.7,-999.0,61,-99.99,,,0.00,Acu-Link.com,2013-01-05 00:29:00,
2013-01-04 19:49:00,35.1,23.8,30.25,NW,315,1.7,-999.0,63,-99.99,,,0.00,Acu-Link.com,2013-01-05 00:49:00,
2013-01-04 20:47:00,34.2,24.0,30.25,ENE,67,0.0,-999.0,66,-99.99,,,0.00,Acu-Link.com,2013-01-05 01:47:00,
2013-01-04 21:02:00,31.1,23.5,30.24,WNW,292,0.0,-999.0,73,-99.99,,,0.00,Acu-Link.com,2013-01-05 02:02:00,
2013-01-04 21:18:00,30.6,23.0,30.24,WNW,292,0.0,-999.0,73,-99.99,,,0.00,Acu-Link.com,2013-01-05 02:18:00,
2013-01-04 21:34:00,30.6,24.0,30.24,NNW,337,1.7,-999.0,76,-99.99,,,0.00,Acu-Link.com,2013-01-05 02:34:00,
2013-01-04 21:50:00,30.0,23.4,30.24,NNW,337,2.2,-999.0,76,-99.99,,,0.00,Acu-Link.com,2013-01-05 02:50:00,
2013-01-04 22:05:00,29.1,23.1,30.24,NNE,22,2.7,-999.0,78,-99.99,,,0.00,Acu-Link.com,2013-01-05 03:05:00,
2013-01-04 23:02:00,28.0,22.6,30.23,WSW,247,1.7,-999.0,80,-99.99,,,0.00,Acu-Link.com,2013-01-05 04:02:00,
2013-01-04 23:25:00,28.0,22.6,30.23,West,270,1.7,-999.0,80,-99.99,,,0.00,Acu-Link.com,2013-01-05 04:25:00,